LFRB/BES METAR and TAF weather

Enter ICAO airport designator
Station Type Date Time Source
LFRB METAR 2020/09/19 19:00 UTC NOAA

LFRB 191900Z AUTO 36003KT 7000 BKN004 OVC015 16/15 Q1013 TEMPO SCT008 BKN020


Station Type Date Time Source
LFRB Decoded METAR 2020/09/19 19:00 UTC NOAA

Brest, France (LFRB) 48-27N 004-25W 103M
Sep 19, 2020 - 03:00 PM EDT / 2020.09.19 1900 UTC
Wind: from the N (360 degrees) at 3 MPH (3 KT):0
Visibility: 4 mile(s):0
Sky conditions: overcast
Temperature: 60 F (16 C)
Dew Point: 59 F (15 C)
Relative Humidity: 93%
Pressure (altimeter): 29.91 in. Hg (1013 hPa)
ob: LFRB 191900Z AUTO 36003KT 7000 BKN004 OVC015 16/15 Q1013 TEMPO SCT008 BKN020
cycle: 19

Station Type Date Time Source
LFRB TAF 2020/09/19 18:21 UTC NOAA

TAF LFRB 191700Z 1918/2024 02007KT 2000 BR OVC002
TEMPO 1918/2009 9999 NSW SCT008 BKN020
BECMG 2009/2012 9999 NSW BKN025
TEMPO 2012/2024 SHRA PROB30
TEMPO 2015/2018 3000 TSRA BKN014CB

Example: see airport list